EBAW

Antwerp International (Deurne) Airport

Antwerp, Belgium
METAR EBAW 092150Z 29010KT 9999 FEW024 07/04 Q1017 TEMPO 4000 SHRA
Observed Flight Rules
Dec-9 @ 21:50 UTC (13 minutes ago) Visual Flight Rules
Wind Visibility Clouds
290° at 10 knots 10,000+ meters
  • Few at 2,400' AGL
Temperatures Readings
Current 7°C / 45°F
Dewpoint 4°C / 39°F
Humidity 81%
Altimeter 30.03" Hg
Pressure 1017 hPa
Elevation 14
METAR EBAW 092150Z 29010KT 9999 FEW024 07/04 Q1017 TEMPO 4000 SHRA
Observed Flight Rules
Dec-9 @ 21:50 UTC
(13 minutes ago)
VFR
Wind Visibility
290° at 10 knots 10,000+ meters
Clouds
  • Few at 2,400' AGL
Temperature Dewpoint
7°C / 45°F 4°C / 39°F
Humidity Altimeter Pressure
81% 30.03" Hg 1017 hPa